sensor_id;sensor_type;location;lat;lon;timestamp;temperature;humidity
20735;DHT22;10528;52.124;5.196;2023-11-21T00:02:27;7.10;99.90
20735;DHT22;10528;52.124;5.196;2023-11-21T00:04:54;7.10;99.90
20735;DHT22;10528;52.124;5.196;2023-11-21T00:07:21;7.10;99.90
20735;DHT22;10528;52.124;5.196;2023-11-21T00:09:48;7.10;99.90
20735;DHT22;10528;52.124;5.196;2023-11-21T00:12:15;6.90;99.90
20735;DHT22;10528;52.124;5.196;2023-11-21T00:14:42;7.00;99.90
20735;DHT22;10528;52.124;5.196;2023-11-21T00:17:09;7.00;99.90
20735;DHT22;10528;52.124;5.196;2023-11-21T00:19:36;7.00;99.90
20735;DHT22;10528;52.124;5.196;2023-11-21T00:22:03;7.00;99.90
20735;DHT22;10528;52.124;5.196;2023-11-21T00:24:30;6.90;99.90
20735;DHT22;10528;52.124;5.196;2023-11-21T00:26:58;6.90;99.90
20735;DHT22;10528;52.124;5.196;2023-11-21T00:29:25;6.90;99.90
20735;DHT22;10528;52.124;5.196;2023-11-21T00:31:52;6.90;99.90
20735;DHT22;10528;52.124;5.196;2023-11-21T00:34:20;6.80;99.90
20735;DHT22;10528;52.124;5.196;2023-11-21T00:36:47;6.80;99.90
20735;DHT22;10528;52.124;5.196;2023-11-21T00:39:14;6.80;99.90
20735;DHT22;10528;52.124;5.196;2023-11-21T00:41:40;6.80;99.90
20735;DHT22;10528;52.124;5.196;2023-11-21T00:44:08;6.80;99.90
20735;DHT22;10528;52.124;5.196;2023-11-21T00:46:35;6.70;99.90
20735;DHT22;10528;52.124;5.196;2023-11-21T00:49:02;6.70;99.90
20735;DHT22;10528;52.124;5.196;2023-11-21T00:51:32;6.70;99.90
20735;DHT22;10528;52.124;5.196;2023-11-21T00:53:59;6.80;99.90
20735;DHT22;10528;52.124;5.196;2023-11-21T00:56:26;6.70;99.90
20735;DHT22;10528;52.124;5.196;2023-11-21T00:58:53;6.70;99.90
20735;DHT22;10528;52.124;5.196;2023-11-21T01:01:21;6.70;99.90
20735;DHT22;10528;52.124;5.196;2023-11-21T01:03:51;6.80;99.90
20735;DHT22;10528;52.124;5.196;2023-11-21T01:06:18;6.80;99.90
20735;DHT22;10528;52.124;5.196;2023-11-21T01:08:47;6.80;99.90
20735;DHT22;10528;52.124;5.196;2023-11-21T01:11:14;6.90;99.90
20735;DHT22;10528;52.124;5.196;2023-11-21T01:13:42;6.90;99.90
20735;DHT22;10528;52.124;5.196;2023-11-21T01:16:09;6.80;99.90
20735;DHT22;10528;52.124;5.196;2023-11-21T01:18:36;6.80;99.90
20735;DHT22;10528;52.124;5.196;2023-11-21T01:21:03;6.80;99.90
20735;DHT22;10528;52.124;5.196;2023-11-21T01:23:31;6.90;99.90
20735;DHT22;10528;52.124;5.196;2023-11-21T01:25:58;6.90;99.90
20735;DHT22;10528;52.124;5.196;2023-11-21T01:28:25;6.90;99.90
20735;DHT22;10528;52.124;5.196;2023-11-21T01:30:53;6.90;99.90
20735;DHT22;10528;52.124;5.196;2023-11-21T01:33:23;6.90;99.90
20735;DHT22;10528;52.124;5.196;2023-11-21T01:35:52;6.90;99.90
20735;DHT22;10528;52.124;5.196;2023-11-21T01:38:21;7.00;99.90
20735;DHT22;10528;52.124;5.196;2023-11-21T01:40:48;7.10;99.90
20735;DHT22;10528;52.124;5.196;2023-11-21T01:43:15;7.00;99.90
20735;DHT22;10528;52.124;5.196;2023-11-21T01:45:43;7.10;99.90
20735;DHT22;10528;52.124;5.196;2023-11-21T01:48:13;7.10;99.90
20735;DHT22;10528;52.124;5.196;2023-11-21T01:50:41;7.20;99.90
20735;DHT22;10528;52.124;5.196;2023-11-21T01:53:10;7.20;99.90
20735;DHT22;10528;52.124;5.196;2023-11-21T01:55:41;7.20;99.90
20735;DHT22;10528;52.124;5.196;2023-11-21T01:58:09;7.30;99.90
20735;DHT22;10528;52.124;5.196;2023-11-21T02:00:39;7.30;99.90
20735;DHT22;10528;52.124;5.196;2023-11-21T02:03:06;7.40;99.90
20735;DHT22;10528;52.124;5.196;2023-11-21T02:05:34;7.40;99.90
20735;DHT22;10528;52.124;5.196;2023-11-21T02:08:00;7.50;99.90
20735;DHT22;10528;52.124;5.196;2023-11-21T02:10:29;7.50;99.90
20735;DHT22;10528;52.124;5.196;2023-11-21T02:12:58;7.50;99.90
20735;DHT22;10528;52.124;5.196;2023-11-21T02:15:25;7.50;99.90
20735;DHT22;10528;52.124;5.196;2023-11-21T02:17:55;7.60;99.90
20735;DHT22;10528;52.124;5.196;2023-11-21T02:20:25;7.60;99.90
20735;DHT22;10528;52.124;5.196;2023-11-21T02:22:54;7.70;99.90
20735;DHT22;10528;52.124;5.196;2023-11-21T02:25:26;7.70;99.90
20735;DHT22;10528;52.124;5.196;2023-11-21T02:27:59;7.80;99.90
20735;DHT22;10528;52.124;5.196;2023-11-21T02:30:27;7.80;99.90
20735;DHT22;10528;52.124;5.196;2023-11-21T02:32:55;7.80;99.90
20735;DHT22;10528;52.124;5.196;2023-11-21T02:35:25;7.80;99.90
20735;DHT22;10528;52.124;5.196;2023-11-21T02:37:54;7.80;99.90
20735;DHT22;10528;52.124;5.196;2023-11-21T02:40:21;7.90;99.90
20735;DHT22;10528;52.124;5.196;2023-11-21T02:42:48;7.90;99.90
20735;DHT22;10528;52.124;5.196;2023-11-21T02:45:19;7.90;99.90
20735;DHT22;10528;52.124;5.196;2023-11-21T02:47:48;8.00;99.90
20735;DHT22;10528;52.124;5.196;2023-11-21T02:50:20;8.00;99.90
20735;DHT22;10528;52.124;5.196;2023-11-21T02:52:50;8.00;99.90
20735;DHT22;10528;52.124;5.196;2023-11-21T02:55:18;8.10;99.90
20735;DHT22;10528;52.124;5.196;2023-11-21T02:57:45;8.10;99.90
20735;DHT22;10528;52.124;5.196;2023-11-21T03:00:12;8.10;99.90
20735;DHT22;10528;52.124;5.196;2023-11-21T03:02:41;8.20;99.90
20735;DHT22;10528;52.124;5.196;2023-11-21T03:05:09;8.20;99.90
20735;DHT22;10528;52.124;5.196;2023-11-21T03:07:37;8.30;99.90
20735;DHT22;10528;52.124;5.196;2023-11-21T03:10:06;8.30;99.90
20735;DHT22;10528;52.124;5.196;2023-11-21T03:12:36;8.30;99.90
20735;DHT22;10528;52.124;5.196;2023-11-21T03:15:05;8.40;99.90
20735;DHT22;10528;52.124;5.196;2023-11-21T03:17:33;8.40;99.90
20735;DHT22;10528;52.124;5.196;2023-11-21T03:20:00;8.40;99.90
20735;DHT22;10528;52.124;5.196;2023-11-21T03:22:27;8.40;99.90
20735;DHT22;10528;52.124;5.196;2023-11-21T03:24:54;8.40;99.90
20735;DHT22;10528;52.124;5.196;2023-11-21T03:27:21;8.50;99.90
20735;DHT22;10528;52.124;5.196;2023-11-21T03:29:48;8.50;99.90
20735;DHT22;10528;52.124;5.196;2023-11-21T03:32:16;8.50;99.90
20735;DHT22;10528;52.124;5.196;2023-11-21T03:34:56;8.50;99.90
20735;DHT22;10528;52.124;5.196;2023-11-21T03:37:26;8.40;99.90
20735;DHT22;10528;52.124;5.196;2023-11-21T03:39:55;8.50;99.90
20735;DHT22;10528;52.124;5.196;2023-11-21T03:42:24;8.40;99.90
20735;DHT22;10528;52.124;5.196;2023-11-21T03:44:54;8.40;99.90
20735;DHT22;10528;52.124;5.196;2023-11-21T03:47:21;8.40;99.90
20735;DHT22;10528;52.124;5.196;2023-11-21T03:49:49;8.50;99.90
20735;DHT22;10528;52.124;5.196;2023-11-21T03:52:16;8.50;99.90
20735;DHT22;10528;52.124;5.196;2023-11-21T03:54:43;8.50;99.90
20735;DHT22;10528;52.124;5.196;2023-11-21T03:57:11;8.50;99.90
20735;DHT22;10528;52.124;5.196;2023-11-21T03:59:42;8.50;99.90
20735;DHT22;10528;52.124;5.196;2023-11-21T04:02:10;8.50;99.90
20735;DHT22;10528;52.124;5.196;2023-11-21T04:04:37;8.50;99.90
20735;DHT22;10528;52.124;5.196;2023-11-21T04:07:04;8.50;99.90
20735;DHT22;10528;52.124;5.196;2023-11-21T04:09:31;8.50;99.90
20735;DHT22;10528;52.124;5.196;2023-11-21T04:11:58;8.50;99.90
20735;DHT22;10528;52.124;5.196;2023-11-21T04:14:26;8.50;99.90
20735;DHT22;10528;52.124;5.196;2023-11-21T04:16:52;8.60;99.90
20735;DHT22;10528;52.124;5.196;2023-11-21T04:19:20;8.60;99.90
20735;DHT22;10528;52.124;5.196;2023-11-21T04:21:48;8.60;99.90
20735;DHT22;10528;52.124;5.196;2023-11-21T04:24:16;8.60;99.90
20735;DHT22;10528;52.124;5.196;2023-11-21T04:26:45;8.60;99.90
20735;DHT22;10528;52.124;5.196;2023-11-21T04:29:13;8.60;99.90
20735;DHT22;10528;52.124;5.196;2023-11-21T04:31:40;8.70;99.90
20735;DHT22;10528;52.124;5.196;2023-11-21T04:34:08;8.70;99.90
20735;DHT22;10528;52.124;5.196;2023-11-21T04:36:34;8.70;99.90
20735;DHT22;10528;52.124;5.196;2023-11-21T04:39:02;8.70;99.90
20735;DHT22;10528;52.124;5.196;2023-11-21T04:41:29;8.70;99.90
20735;DHT22;10528;52.124;5.196;2023-11-21T04:43:58;8.80;99.90
20735;DHT22;10528;52.124;5.196;2023-11-21T04:46:27;8.80;99.90
20735;DHT22;10528;52.124;5.196;2023-11-21T04:48:54;8.80;99.90
20735;DHT22;10528;52.124;5.196;2023-11-21T04:51:21;8.80;99.90
20735;DHT22;10528;52.124;5.196;2023-11-21T04:53:48;8.80;99.90
20735;DHT22;10528;52.124;5.196;2023-11-21T04:56:16;8.80;99.90
20735;DHT22;10528;52.124;5.196;2023-11-21T04:58:43;8.90;99.90
20735;DHT22;10528;52.124;5.196;2023-11-21T05:01:10;8.90;99.90
20735;DHT22;10528;52.124;5.196;2023-11-21T05:03:37;8.90;99.90
20735;DHT22;10528;52.124;5.196;2023-11-21T05:06:05;8.90;99.90
20735;DHT22;10528;52.124;5.196;2023-11-21T05:08:33;8.90;99.90
20735;DHT22;10528;52.124;5.196;2023-11-21T05:11:00;8.90;99.90
20735;DHT22;10528;52.124;5.196;2023-11-21T05:13:27;8.90;99.90
20735;DHT22;10528;52.124;5.196;2023-11-21T05:15:55;8.90;99.90
20735;DHT22;10528;52.124;5.196;2023-11-21T05:18:25;8.90;99.90
20735;DHT22;10528;52.124;5.196;2023-11-21T05:20:56;8.90;99.90
20735;DHT22;10528;52.124;5.196;2023-11-21T05:23:23;8.90;99.90
20735;DHT22;10528;52.124;5.196;2023-11-21T05:25:51;8.90;99.90
20735;DHT22;10528;52.124;5.196;2023-11-21T05:28:18;8.90;99.90
20735;DHT22;10528;52.124;5.196;2023-11-21T05:30:45;8.90;99.90
20735;DHT22;10528;52.124;5.196;2023-11-21T05:33:12;8.90;99.90
20735;DHT22;10528;52.124;5.196;2023-11-21T05:35:39;8.90;99.90
20735;DHT22;10528;52.124;5.196;2023-11-21T05:38:06;9.00;99.90
20735;DHT22;10528;52.124;5.196;2023-11-21T05:40:33;9.00;99.90
20735;DHT22;10528;52.124;5.196;2023-11-21T05:43:00;8.90;99.90
20735;DHT22;10528;52.124;5.196;2023-11-21T05:45:27;9.00;99.90
20735;DHT22;10528;52.124;5.196;2023-11-21T05:47:55;9.00;99.90
20735;DHT22;10528;52.124;5.196;2023-11-21T05:50:22;9.00;99.90
20735;DHT22;10528;52.124;5.196;2023-11-21T05:52:50;9.10;99.90
20735;DHT22;10528;52.124;5.196;2023-11-21T05:55:17;9.10;99.90
20735;DHT22;10528;52.124;5.196;2023-11-21T05:57:44;9.10;99.90
20735;DHT22;10528;52.124;5.196;2023-11-21T06:00:13;9.10;99.90
20735;DHT22;10528;52.124;5.196;2023-11-21T06:02:49;9.10;99.90
20735;DHT22;10528;52.124;5.196;2023-11-21T06:05:19;9.10;99.90
20735;DHT22;10528;52.124;5.196;2023-11-21T06:07:47;9.20;99.90
20735;DHT22;10528;52.124;5.196;2023-11-21T06:10:14;9.20;99.90
20735;DHT22;10528;52.124;5.196;2023-11-21T06:12:41;9.20;99.90
20735;DHT22;10528;52.124;5.196;2023-11-21T06:15:10;9.20;99.90
20735;DHT22;10528;52.124;5.196;2023-11-21T06:17:41;9.20;99.90
20735;DHT22;10528;52.124;5.196;2023-11-21T06:20:10;9.20;99.90
20735;DHT22;10528;52.124;5.196;2023-11-21T06:22:42;9.30;99.90
20735;DHT22;10528;52.124;5.196;2023-11-21T06:25:11;9.40;99.90
20735;DHT22;10528;52.124;5.196;2023-11-21T06:27:43;9.40;99.90
20735;DHT22;10528;52.124;5.196;2023-11-21T06:30:13;9.50;99.90
20735;DHT22;10528;52.124;5.196;2023-11-21T06:32:42;9.50;99.90
20735;DHT22;10528;52.124;5.196;2023-11-21T06:35:14;9.40;99.90
20735;DHT22;10528;52.124;5.196;2023-11-21T06:37:43;9.40;99.90
20735;DHT22;10528;52.124;5.196;2023-11-21T06:40:16;9.50;99.90
20735;DHT22;10528;52.124;5.196;2023-11-21T06:42:48;9.60;99.90
20735;DHT22;10528;52.124;5.196;2023-11-21T06:45:16;9.60;99.90
20735;DHT22;10528;52.124;5.196;2023-11-21T06:47:44;9.60;99.90
20735;DHT22;10528;52.124;5.196;2023-11-21T06:50:11;9.60;99.90
20735;DHT22;10528;52.124;5.196;2023-11-21T06:52:38;9.70;99.90
20735;DHT22;10528;52.124;5.196;2023-11-21T06:55:06;9.70;99.90
20735;DHT22;10528;52.124;5.196;2023-11-21T06:57:35;9.80;99.90
20735;DHT22;10528;52.124;5.196;2023-11-21T07:00:02;9.80;99.90
20735;DHT22;10528;52.124;5.196;2023-11-21T07:02:30;9.90;99.90
20735;DHT22;10528;52.124;5.196;2023-11-21T07:04:58;9.90;99.90
20735;DHT22;10528;52.124;5.196;2023-11-21T07:07:25;10.00;99.90
20735;DHT22;10528;52.124;5.196;2023-11-21T07:09:52;10.00;99.90
20735;DHT22;10528;52.124;5.196;2023-11-21T07:12:19;10.00;99.90
20735;DHT22;10528;52.124;5.196;2023-11-21T07:14:46;10.10;99.90
20735;DHT22;10528;52.124;5.196;2023-11-21T07:17:13;10.10;99.90
20735;DHT22;10528;52.124;5.196;2023-11-21T07:19:40;10.10;99.90
20735;DHT22;10528;52.124;5.196;2023-11-21T07:22:08;10.10;99.90
20735;DHT22;10528;52.124;5.196;2023-11-21T07:24:36;10.20;99.90
20735;DHT22;10528;52.124;5.196;2023-11-21T07:27:03;10.20;99.90
20735;DHT22;10528;52.124;5.196;2023-11-21T07:29:30;10.20;99.90
20735;DHT22;10528;52.124;5.196;2023-11-21T07:31:57;10.20;99.90
20735;DHT22;10528;52.124;5.196;2023-11-21T07:34:24;10.20;99.90
20735;DHT22;10528;52.124;5.196;2023-11-21T07:36:52;10.30;99.90
20735;DHT22;10528;52.124;5.196;2023-11-21T07:39:18;10.30;99.90
20735;DHT22;10528;52.124;5.196;2023-11-21T07:41:45;10.30;99.90
20735;DHT22;10528;52.124;5.196;2023-11-21T07:44:16;10.40;99.90
20735;DHT22;10528;52.124;5.196;2023-11-21T07:46:44;10.40;99.90
20735;DHT22;10528;52.124;5.196;2023-11-21T07:49:12;10.40;99.90
20735;DHT22;10528;52.124;5.196;2023-11-21T07:51:43;10.50;99.90
20735;DHT22;10528;52.124;5.196;2023-11-21T07:54:11;10.50;99.90
20735;DHT22;10528;52.124;5.196;2023-11-21T07:56:38;10.50;99.90
20735;DHT22;10528;52.124;5.196;2023-11-21T07:59:05;10.50;99.90
20735;DHT22;10528;52.124;5.196;2023-11-21T08:01:32;10.50;99.90
20735;DHT22;10528;52.124;5.196;2023-11-21T08:04:00;10.60;99.90
20735;DHT22;10528;52.124;5.196;2023-11-21T08:06:30;10.60;99.90
20735;DHT22;10528;52.124;5.196;2023-11-21T08:08:58;10.60;99.90
20735;DHT22;10528;52.124;5.196;2023-11-21T08:11:25;10.70;99.90
20735;DHT22;10528;52.124;5.196;2023-11-21T08:13:55;10.70;99.90
20735;DHT22;10528;52.124;5.196;2023-11-21T08:16:23;10.70;99.90
20735;DHT22;10528;52.124;5.196;2023-11-21T08:18:51;10.70;99.90
20735;DHT22;10528;52.124;5.196;2023-11-21T08:21:18;10.80;99.90
20735;DHT22;10528;52.124;5.196;2023-11-21T08:23:46;10.80;99.90
20735;DHT22;10528;52.124;5.196;2023-11-21T08:26:16;10.80;99.90
20735;DHT22;10528;52.124;5.196;2023-11-21T08:28:43;10.80;99.90
20735;DHT22;10528;52.124;5.196;2023-11-21T08:31:10;10.70;99.90
20735;DHT22;10528;52.124;5.196;2023-11-21T08:33:39;10.70;99.90
20735;DHT22;10528;52.124;5.196;2023-11-21T08:36:08;10.80;99.90
20735;DHT22;10528;52.124;5.196;2023-11-21T08:38:36;10.70;99.90
20735;DHT22;10528;52.124;5.196;2023-11-21T08:41:06;10.70;99.90
20735;DHT22;10528;52.124;5.196;2023-11-21T08:43:37;10.70;99.90
20735;DHT22;10528;52.124;5.196;2023-11-21T08:46:06;10.80;99.90
20735;DHT22;10528;52.124;5.196;2023-11-21T08:48:36;10.90;99.90
20735;DHT22;10528;52.124;5.196;2023-11-21T08:51:04;10.90;99.90
20735;DHT22;10528;52.124;5.196;2023-11-21T08:53:31;11.00;99.90
20735;DHT22;10528;52.124;5.196;2023-11-21T08:55:59;11.00;99.90
20735;DHT22;10528;52.124;5.196;2023-11-21T08:58:27;11.00;99.90
20735;DHT22;10528;52.124;5.196;2023-11-21T09:00:54;11.10;99.90
20735;DHT22;10528;52.124;5.196;2023-11-21T09:03:21;11.00;99.90
20735;DHT22;10528;52.124;5.196;2023-11-21T09:05:48;11.10;99.90
20735;DHT22;10528;52.124;5.196;2023-11-21T09:08:15;11.10;99.90
20735;DHT22;10528;52.124;5.196;2023-11-21T09:10:43;11.10;99.90
20735;DHT22;10528;52.124;5.196;2023-11-21T09:13:13;11.10;99.90
20735;DHT22;10528;52.124;5.196;2023-11-21T09:15:43;11.10;99.90
20735;DHT22;10528;52.124;5.196;2023-11-21T09:18:15;11.00;99.90
20735;DHT22;10528;52.124;5.196;2023-11-21T09:20:42;11.00;99.90
20735;DHT22;10528;52.124;5.196;2023-11-21T09:23:10;11.00;99.90
20735;DHT22;10528;52.124;5.196;2023-11-21T09:25:38;11.00;99.90
20735;DHT22;10528;52.124;5.196;2023-11-21T09:28:05;11.00;99.90
20735;DHT22;10528;52.124;5.196;2023-11-21T09:30:36;11.00;99.90
20735;DHT22;10528;52.124;5.196;2023-11-21T09:33:03;11.00;99.90
20735;DHT22;10528;52.124;5.196;2023-11-21T09:35:33;11.00;99.90
20735;DHT22;10528;52.124;5.196;2023-11-21T09:38:00;10.90;99.90
20735;DHT22;10528;52.124;5.196;2023-11-21T09:40:29;10.90;99.90
20735;DHT22;10528;52.124;5.196;2023-11-21T09:42:58;11.00;99.90
20735;DHT22;10528;52.124;5.196;2023-11-21T09:45:34;11.00;99.90
20735;DHT22;10528;52.124;5.196;2023-11-21T09:48:02;11.00;99.90
20735;DHT22;10528;52.124;5.196;2023-11-21T09:50:29;11.00;99.90
20735;DHT22;10528;52.124;5.196;2023-11-21T09:53:17;10.90;99.90
20735;DHT22;10528;52.124;5.196;2023-11-21T09:55:50;10.90;99.90
20735;DHT22;10528;52.124;5.196;2023-11-21T09:58:19;10.90;99.90
20735;DHT22;10528;52.124;5.196;2023-11-21T10:00:55;10.90;99.90
20735;DHT22;10528;52.124;5.196;2023-11-21T10:03:26;10.90;99.90
20735;DHT22;10528;52.124;5.196;2023-11-21T10:05:53;10.90;99.90
20735;DHT22;10528;52.124;5.196;2023-11-21T10:08:27;10.90;99.90
20735;DHT22;10528;52.124;5.196;2023-11-21T10:11:12;10.90;99.90
20735;DHT22;10528;52.124;5.196;2023-11-21T10:13:43;10.80;99.90
20735;DHT22;10528;52.124;5.196;2023-11-21T10:16:14;10.80;99.90
20735;DHT22;10528;52.124;5.196;2023-11-21T10:18:51;10.90;99.90
20735;DHT22;10528;52.124;5.196;2023-11-21T10:21:29;10.80;99.90
20735;DHT22;10528;52.124;5.196;2023-11-21T10:23:56;10.80;99.90
20735;DHT22;10528;52.124;5.196;2023-11-21T10:26:24;10.90;99.90
20735;DHT22;10528;52.124;5.196;2023-11-21T10:28:59;10.90;99.90
20735;DHT22;10528;52.124;5.196;2023-11-21T10:31:27;10.80;99.90
20735;DHT22;10528;52.124;5.196;2023-11-21T10:33:54;10.80;99.90
20735;DHT22;10528;52.124;5.196;2023-11-21T10:36:36;10.80;99.90
20735;DHT22;10528;52.124;5.196;2023-11-21T10:39:03;10.80;99.90
20735;DHT22;10528;52.124;5.196;2023-11-21T10:41:30;10.80;99.90
20735;DHT22;10528;52.124;5.196;2023-11-21T10:43:57;10.80;99.90
20735;DHT22;10528;52.124;5.196;2023-11-21T10:46:24;10.80;99.90
20735;DHT22;10528;52.124;5.196;2023-11-21T10:48:53;10.80;99.90
20735;DHT22;10528;52.124;5.196;2023-11-21T10:51:22;10.70;99.90
20735;DHT22;10528;52.124;5.196;2023-11-21T10:53:52;10.70;99.90
20735;DHT22;10528;52.124;5.196;2023-11-21T10:56:23;10.70;99.90
20735;DHT22;10528;52.124;5.196;2023-11-21T10:58:50;10.70;99.90
20735;DHT22;10528;52.124;5.196;2023-11-21T11:01:19;10.70;99.90
20735;DHT22;10528;52.124;5.196;2023-11-21T11:03:50;10.80;99.90
20735;DHT22;10528;52.124;5.196;2023-11-21T11:06:21;10.70;99.90
20735;DHT22;10528;52.124;5.196;2023-11-21T11:08:53;10.70;99.90
20735;DHT22;10528;52.124;5.196;2023-11-21T11:11:21;10.80;99.90
20735;DHT22;10528;52.124;5.196;2023-11-21T11:13:48;10.70;99.90
20735;DHT22;10528;52.124;5.196;2023-11-21T11:16:16;10.80;99.90
20735;DHT22;10528;52.124;5.196;2023-11-21T11:18:44;10.90;99.90
20735;DHT22;10528;52.124;5.196;2023-11-21T11:21:37;10.80;99.90
20735;DHT22;10528;52.124;5.196;2023-11-21T11:30:28;10.80;99.90
20735;DHT22;10528;52.124;5.196;2023-11-21T11:33:26;10.70;99.90
20735;DHT22;10528;52.124;5.196;2023-11-21T11:38:45;10.70;99.90
20735;DHT22;10528;52.124;5.196;2023-11-21T11:41:13;10.70;99.90
20735;DHT22;10528;52.124;5.196;2023-11-21T11:43:50;10.60;99.90
20735;DHT22;10528;52.124;5.196;2023-11-21T11:46:18;10.70;99.90
20735;DHT22;10528;52.124;5.196;2023-11-21T11:48:48;10.80;99.90
20735;DHT22;10528;52.124;5.196;2023-11-21T11:51:30;10.70;99.90
20735;DHT22;10528;52.124;5.196;2023-11-21T11:53:58;10.70;99.90
20735;DHT22;10528;52.124;5.196;2023-11-21T11:58:59;10.80;99.90
20735;DHT22;10528;52.124;5.196;2023-11-21T12:01:33;10.90;99.90
20735;DHT22;10528;52.124;5.196;2023-11-21T12:07:00;10.80;99.90
20735;DHT22;10528;52.124;5.196;2023-11-21T12:09:31;10.70;99.90
20735;DHT22;10528;52.124;5.196;2023-11-21T12:11:59;10.70;99.90
20735;DHT22;10528;52.124;5.196;2023-11-21T12:14:26;10.80;99.90
20735;DHT22;10528;52.124;5.196;2023-11-21T12:16:54;10.80;99.90
20735;DHT22;10528;52.124;5.196;2023-11-21T12:19:21;10.70;99.90
20735;DHT22;10528;52.124;5.196;2023-11-21T12:21:49;10.70;99.90
20735;DHT22;10528;52.124;5.196;2023-11-21T12:24:16;10.60;99.90
20735;DHT22;10528;52.124;5.196;2023-11-21T12:26:43;10.70;99.90
20735;DHT22;10528;52.124;5.196;2023-11-21T12:29:11;10.70;99.90
20735;DHT22;10528;52.124;5.196;2023-11-21T12:31:38;10.70;99.90
20735;DHT22;10528;52.124;5.196;2023-11-21T12:34:06;10.60;99.90
20735;DHT22;10528;52.124;5.196;2023-11-21T12:36:35;10.60;99.90
20735;DHT22;10528;52.124;5.196;2023-11-21T12:39:03;10.60;99.90
20735;DHT22;10528;52.124;5.196;2023-11-21T12:41:30;10.60;99.90
20735;DHT22;10528;52.124;5.196;2023-11-21T12:43:57;10.60;99.90
20735;DHT22;10528;52.124;5.196;2023-11-21T12:46:25;10.70;99.90
20735;DHT22;10528;52.124;5.196;2023-11-21T12:48:57;10.80;99.90
20735;DHT22;10528;52.124;5.196;2023-11-21T12:51:24;10.80;99.90
20735;DHT22;10528;52.124;5.196;2023-11-21T12:53:52;10.80;99.90
20735;DHT22;10528;52.124;5.196;2023-11-21T12:56:21;10.90;99.90
20735;DHT22;10528;52.124;5.196;2023-11-21T12:58:50;10.90;99.90
20735;DHT22;10528;52.124;5.196;2023-11-21T13:01:21;11.00;99.90
20735;DHT22;10528;52.124;5.196;2023-11-21T13:03:57;10.90;99.90
20735;DHT22;10528;52.124;5.196;2023-11-21T13:06:25;10.90;99.90
20735;DHT22;10528;52.124;5.196;2023-11-21T13:08:54;11.00;99.90
20735;DHT22;10528;52.124;5.196;2023-11-21T13:11:24;11.00;99.90
20735;DHT22;10528;52.124;5.196;2023-11-21T13:13:53;11.00;99.90
20735;DHT22;10528;52.124;5.196;2023-11-21T13:16:20;11.10;99.90
20735;DHT22;10528;52.124;5.196;2023-11-21T13:18:47;11.00;99.90
20735;DHT22;10528;52.124;5.196;2023-11-21T13:21:14;11.00;99.90
20735;DHT22;10528;52.124;5.196;2023-11-21T13:23:42;11.00;99.90
20735;DHT22;10528;52.124;5.196;2023-11-21T13:26:13;10.90;99.90
20735;DHT22;10528;52.124;5.196;2023-11-21T13:28:41;10.90;99.90
20735;DHT22;10528;52.124;5.196;2023-11-21T13:31:13;10.90;99.90
20735;DHT22;10528;52.124;5.196;2023-11-21T13:33:54;10.90;99.90
20735;DHT22;10528;52.124;5.196;2023-11-21T13:36:30;10.70;99.90
20735;DHT22;10528;52.124;5.196;2023-11-21T13:39:00;10.70;99.90
20735;DHT22;10528;52.124;5.196;2023-11-21T13:41:34;10.70;99.90
20735;DHT22;10528;52.124;5.196;2023-11-21T13:44:00;10.60;99.90
20735;DHT22;10528;52.124;5.196;2023-11-21T13:46:43;10.60;99.90
20735;DHT22;10528;52.124;5.196;2023-11-21T13:49:12;10.60;99.90
20735;DHT22;10528;52.124;5.196;2023-11-21T13:51:41;10.60;99.90
20735;DHT22;10528;52.124;5.196;2023-11-21T13:54:11;10.60;99.90
20735;DHT22;10528;52.124;5.196;2023-11-21T13:56:38;10.60;99.90
20735;DHT22;10528;52.124;5.196;2023-11-21T13:59:07;10.70;99.90
20735;DHT22;10528;52.124;5.196;2023-11-21T14:01:43;10.60;99.90
20735;DHT22;10528;52.124;5.196;2023-11-21T14:04:24;10.60;99.90
20735;DHT22;10528;52.124;5.196;2023-11-21T14:06:57;10.50;99.90
20735;DHT22;10528;52.124;5.196;2023-11-21T14:09:27;10.40;99.90
20735;DHT22;10528;52.124;5.196;2023-11-21T14:12:10;10.40;99.90
20735;DHT22;10528;52.124;5.196;2023-11-21T14:14:39;10.30;99.90
20735;DHT22;10528;52.124;5.196;2023-11-21T14:17:06;10.30;99.90
20735;DHT22;10528;52.124;5.196;2023-11-21T14:19:34;10.20;99.90
20735;DHT22;10528;52.124;5.196;2023-11-21T14:22:03;10.20;99.90
20735;DHT22;10528;52.124;5.196;2023-11-21T14:24:30;10.20;99.90
20735;DHT22;10528;52.124;5.196;2023-11-21T14:26:59;10.30;99.90
20735;DHT22;10528;52.124;5.196;2023-11-21T14:29:26;10.30;99.90
20735;DHT22;10528;52.124;5.196;2023-11-21T14:31:54;10.30;99.90
20735;DHT22;10528;52.124;5.196;2023-11-21T14:34:24;10.30;99.90
20735;DHT22;10528;52.124;5.196;2023-11-21T14:36:51;10.20;99.90
20735;DHT22;10528;52.124;5.196;2023-11-21T14:39:18;10.20;99.90
20735;DHT22;10528;52.124;5.196;2023-11-21T14:41:54;10.10;99.90
20735;DHT22;10528;52.124;5.196;2023-11-21T14:44:26;10.20;99.90
20735;DHT22;10528;52.124;5.196;2023-11-21T14:46:55;10.10;99.90
20735;DHT22;10528;52.124;5.196;2023-11-21T14:49:25;10.00;99.90
20735;DHT22;10528;52.124;5.196;2023-11-21T14:51:55;10.10;99.90
20735;DHT22;10528;52.124;5.196;2023-11-21T14:54:30;10.10;99.90
20735;DHT22;10528;52.124;5.196;2023-11-21T14:57:12;10.00;99.90
20735;DHT22;10528;52.124;5.196;2023-11-21T14:59:46;10.00;99.90
20735;DHT22;10528;52.124;5.196;2023-11-21T15:02:20;10.00;99.90
20735;DHT22;10528;52.124;5.196;2023-11-21T15:04:49;9.90;99.90
20735;DHT22;10528;52.124;5.196;2023-11-21T15:07:19;9.90;99.90
20735;DHT22;10528;52.124;5.196;2023-11-21T15:09:47;10.00;99.90
20735;DHT22;10528;52.124;5.196;2023-11-21T15:12:16;9.90;99.90
20735;DHT22;10528;52.124;5.196;2023-11-21T15:14:50;9.90;99.90
20735;DHT22;10528;52.124;5.196;2023-11-21T15:17:23;9.90;99.90
20735;DHT22;10528;52.124;5.196;2023-11-21T15:19:56;9.80;99.90
20735;DHT22;10528;52.124;5.196;2023-11-21T15:22:23;9.90;99.90
20735;DHT22;10528;52.124;5.196;2023-11-21T15:24:50;9.90;99.90
20735;DHT22;10528;52.124;5.196;2023-11-21T15:27:20;9.90;99.90
20735;DHT22;10528;52.124;5.196;2023-11-21T15:29:47;9.80;99.90
20735;DHT22;10528;52.124;5.196;2023-11-21T15:32:16;9.80;99.90
20735;DHT22;10528;52.124;5.196;2023-11-21T15:34:43;9.70;99.90
20735;DHT22;10528;52.124;5.196;2023-11-21T15:37:10;9.70;99.90
20735;DHT22;10528;52.124;5.196;2023-11-21T15:39:39;9.70;99.90
20735;DHT22;10528;52.124;5.196;2023-11-21T15:42:06;9.60;99.90
20735;DHT22;10528;52.124;5.196;2023-11-21T15:44:37;9.60;99.90
20735;DHT22;10528;52.124;5.196;2023-11-21T15:47:05;9.60;99.90
20735;DHT22;10528;52.124;5.196;2023-11-21T15:49:35;9.60;99.90
20735;DHT22;10528;52.124;5.196;2023-11-21T15:52:05;9.60;99.90
20735;DHT22;10528;52.124;5.196;2023-11-21T15:54:33;9.50;99.90
20735;DHT22;10528;52.124;5.196;2023-11-21T15:57:01;9.50;99.90
20735;DHT22;10528;52.124;5.196;2023-11-21T15:59:31;9.40;99.90
20735;DHT22;10528;52.124;5.196;2023-11-21T16:02:00;9.40;99.90
20735;DHT22;10528;52.124;5.196;2023-11-21T16:04:31;9.40;99.90